createdAt,value
2023-03-26T00:00:07.102Z,99911.63
2023-03-26T00:02:33.839Z,99909.97
2023-03-26T00:05:00.471Z,99904.88
2023-03-26T00:07:27.211Z,99920.22
2023-03-26T00:09:53.814Z,99932.91
2023-03-26T00:12:20.536Z,99927.66
2023-03-26T00:14:47.234Z,99931.53
2023-03-26T00:17:15.490Z,99922.59
2023-03-26T00:19:42.040Z,99919.06
2023-03-26T00:22:08.719Z,99931.72
2023-03-26T00:24:35.331Z,99928.31
2023-03-26T00:27:01.912Z,99939.97
2023-03-26T00:29:28.736Z,99936.25
2023-03-26T00:31:55.307Z,99933.56
2023-03-26T00:34:23.295Z,99945.34
2023-03-26T00:36:49.978Z,99945.34
2023-03-26T00:39:16.621Z,99940.81
2023-03-26T00:41:43.437Z,99933.41
2023-03-26T00:44:10.833Z,99940.81
2023-03-26T00:46:37.562Z,99939.13
2023-03-26T00:49:04.837Z,99949.06
2023-03-26T00:51:33.033Z,99953.94
2023-03-26T00:53:59.870Z,99941.31
2023-03-26T00:56:26.757Z,99953.09
2023-03-26T00:58:53.502Z,99942.66
2023-03-26T01:01:25.002Z,99952.59
2023-03-26T01:04:05.295Z,99955.47
2023-03-26T01:06:38.817Z,99946.69
2023-03-26T01:09:14.350Z,99950.56
2023-03-26T01:11:41.572Z,99951.41
2023-03-26T01:14:12.260Z,99955.28
2023-03-26T01:16:43.125Z,99952.91
2023-03-26T01:19:17.817Z,99958.31
2023-03-26T01:21:45.893Z,99968.25
2023-03-26T01:24:14.091Z,99960.50
2023-03-26T01:26:53.100Z,99953.72
2023-03-26T01:29:25.889Z,99961.47
2023-03-26T01:31:59.341Z,99968.88
2023-03-26T01:34:29.965Z,99968.38
2023-03-26T01:37:05.259Z,99971.22
2023-03-26T01:39:41.275Z,99964.13
2023-03-26T01:42:11.468Z,99970.69
2023-03-26T01:44:44.062Z,99973.56
2023-03-26T01:47:12.610Z,99966.50
2023-03-26T01:49:39.337Z,99968.50
2023-03-26T01:52:13.067Z,99967.66
2023-03-26T01:54:41.450Z,99972.88
2023-03-26T01:57:17.953Z,99966.66
2023-03-26T02:00:01.860Z,99963.09
2023-03-26T02:02:36.468Z,99964.28
2023-03-26T02:05:12.704Z,99967.13
2023-03-26T02:07:43.974Z,99966.13
2023-03-26T02:10:15.254Z,99958.19
2023-03-26T02:12:43.101Z,99963.78
2023-03-26T02:15:11.108Z,99957.53
2023-03-26T02:17:37.787Z,99954.97
2023-03-26T02:20:05.280Z,99949.75
2023-03-26T02:22:31.943Z,99963.56
2023-03-26T02:24:58.535Z,99962.84
2023-03-26T02:27:26.467Z,99974.81
2023-03-26T02:29:53.135Z,99974.16
2023-03-26T02:32:19.764Z,99980.69
2023-03-26T02:34:46.464Z,99972.94
2023-03-26T02:37:13.162Z,99987.56
2023-03-26T02:39:39.839Z,99990.25
2023-03-26T02:42:06.389Z,99987.56
2023-03-26T02:44:34.342Z,99989.25
2023-03-26T02:47:00.951Z,99992.81
2023-03-26T02:49:27.541Z,99981.88
2023-03-26T02:51:54.161Z,99991.81
2023-03-26T02:54:21.025Z,100001.59
2023-03-26T02:56:47.644Z,99992.66
2023-03-26T02:59:14.337Z,100000.75
2023-03-26T03:01:42.326Z,100007.13
2023-03-26T03:04:09.012Z,100002.59
2023-03-26T03:06:36.351Z,100004.44
2023-03-26T03:09:03.051Z,100004.28
2023-03-26T03:11:29.614Z,100005.94
2023-03-26T03:13:56.428Z,100006.50
2023-03-26T03:16:23.305Z,100007.31
2023-03-26T03:18:51.428Z,100007.03
2023-03-26T03:21:17.962Z,99997.09
2023-03-26T03:23:44.577Z,99999.47
2023-03-26T03:26:14.300Z,100003.00
2023-03-26T03:28:41.189Z,99996.75
2023-03-26T03:31:07.820Z,99998.47
2023-03-26T03:33:34.482Z,100008.41
2023-03-26T03:36:02.511Z,100000.44
2023-03-26T03:38:29.162Z,99996.91
2023-03-26T03:40:55.773Z,100002.31
2023-03-26T03:43:22.388Z,99998.75
2023-03-26T03:45:49.076Z,100001.44
2023-03-26T03:48:15.682Z,99998.94
2023-03-26T03:50:42.270Z,99999.94
2023-03-26T03:53:10.265Z,100006.31
2023-03-26T03:55:36.821Z,100018.97
2023-03-26T03:58:03.830Z,100021.50
2023-03-26T04:00:30.455Z,100016.25
2023-03-26T04:02:57.078Z,100016.25
2023-03-26T04:05:23.775Z,100020.81
2023-03-26T04:07:50.528Z,100023.50
2023-03-26T04:10:18.692Z,100022.69
2023-03-26T04:12:45.290Z,100020.13
2023-03-26T04:15:11.916Z,100016.44
2023-03-26T04:17:38.482Z,100020.97
2023-03-26T04:20:06.235Z,100020.28
2023-03-26T04:22:32.827Z,100021.28
2023-03-26T04:24:59.465Z,100022.13
2023-03-26T04:27:31.302Z,100019.63
2023-03-26T04:30:00.913Z,100018.06
2023-03-26T04:32:30.429Z,100010.97
2023-03-26T04:34:57.796Z,100010.31
2023-03-26T04:37:26.999Z,100009.59
2023-03-26T04:39:53.808Z,100010.63
2023-03-26T04:42:20.515Z,100010.94
2023-03-26T04:44:48.597Z,100010.09
2023-03-26T04:47:15.217Z,100011.25
2023-03-26T04:49:41.817Z,100009.56
2023-03-26T04:52:10.600Z,100010.41
2023-03-26T04:54:37.548Z,100016.78
2023-03-26T04:57:08.941Z,100016.78
2023-03-26T04:59:35.782Z,100015.81
2023-03-26T05:02:05.746Z,100018.50
2023-03-26T05:04:33.059Z,100014.81
2023-03-26T05:06:59.937Z,100016.50
2023-03-26T05:09:27.344Z,100012.09
2023-03-26T05:11:54.423Z,100017.50
2023-03-26T05:14:21.122Z,100014.66
2023-03-26T05:16:49.645Z,100009.25
2023-03-26T05:19:17.656Z,100019.19
2023-03-26T05:21:44.424Z,100016.50
2023-03-26T05:24:11.077Z,100021.19
2023-03-26T05:26:37.825Z,100022.03
2023-03-26T05:29:04.583Z,100022.88
2023-03-26T05:31:31.288Z,100026.25
2023-03-26T05:33:58.445Z,100022.75
2023-03-26T05:36:26.643Z,100025.25
2023-03-26T05:38:53.352Z,100023.41
2023-03-26T05:41:20.028Z,100021.56
2023-03-26T05:43:46.645Z,100025.09
2023-03-26T05:46:14.354Z,100033.03
2023-03-26T05:48:41.117Z,100029.31
2023-03-26T05:51:08.242Z,100029.31
2023-03-26T05:53:36.325Z,100031.03
2023-03-26T05:56:03.025Z,100032.72
2023-03-26T05:58:31.748Z,100034.41
2023-03-26T06:00:58.780Z,100031.72
2023-03-26T06:03:26.020Z,100036.09
2023-03-26T06:05:52.773Z,100038.63
2023-03-26T06:08:19.779Z,100036.78
2023-03-26T06:10:48.069Z,100036.47
2023-03-26T06:13:14.693Z,100037.47
2023-03-26T06:15:41.607Z,100032.06
2023-03-26T06:18:08.483Z,100039.00
2023-03-26T06:20:35.176Z,100039.84
2023-03-26T06:23:01.803Z,100043.53
2023-03-26T06:25:28.423Z,100046.94
2023-03-26T06:27:56.663Z,100041.22
2023-03-26T06:30:23.208Z,100034.50
2023-03-26T06:32:49.797Z,100041.25
2023-03-26T06:35:16.570Z,100043.63
2023-03-26T06:37:43.198Z,100045.00
2023-03-26T06:40:10.751Z,100051.75
2023-03-26T06:43:09.668Z,100040.50
2023-03-26T06:45:25.502Z,100048.81
2023-03-26T06:47:52.198Z,100047.31
2023-03-26T06:50:19.687Z,100051.03
2023-03-26T06:52:46.313Z,100050.56
2023-03-26T06:55:14.281Z,100056.81
2023-03-26T06:57:40.940Z,100054.28
2023-03-26T07:00:09.069Z,100060.41
2023-03-26T07:02:37.262Z,100055.41
2023-03-26T07:05:04.296Z,100055.75
2023-03-26T07:07:30.876Z,100063.72
2023-03-26T07:09:57.842Z,100052.44
2023-03-26T07:12:24.574Z,100052.09
2023-03-26T07:14:51.194Z,100046.69
2023-03-26T07:17:17.796Z,100052.94
2023-03-26T07:19:45.750Z,100052.25
2023-03-26T07:22:18.896Z,100052.25
2023-03-26T07:24:46.203Z,100049.53
2023-03-26T07:27:27.836Z,100048.38
2023-03-26T07:29:59.599Z,100047.19
2023-03-26T07:32:32.805Z,100051.44
2023-03-26T07:35:08.718Z,100048.38
2023-03-26T07:37:48.327Z,100048.38
2023-03-26T07:40:28.731Z,100052.78
2023-03-26T07:43:06.043Z,100052.44
2023-03-26T07:45:39.402Z,100049.09
2023-03-26T07:48:09.604Z,100045.34
2023-03-26T07:50:38.297Z,100051.44
2023-03-26T07:53:05.308Z,100049.91
2023-03-26T07:55:32.213Z,100046.69
2023-03-26T07:58:09.743Z,100046.88
2023-03-26T08:00:43.789Z,100040.13
2023-03-26T08:03:31.400Z,100044.69
2023-03-26T08:06:11.353Z,100037.09
2023-03-26T08:08:47.958Z,100038.28
2023-03-26T08:11:26.847Z,100032.53
2023-03-26T08:14:04.099Z,100034.22
2023-03-26T08:16:38.690Z,100031.53
2023-03-26T08:19:15.889Z,100042.66
2023-03-26T08:21:50.761Z,100030.50
2023-03-26T08:24:23.110Z,100030.16
2023-03-26T08:26:58.327Z,100033.53
2023-03-26T08:29:33.581Z,100030.19
2023-03-26T08:32:01.502Z,100023.41
2023-03-26T08:34:28.189Z,100021.22
2023-03-26T08:36:56.149Z,100031.19
2023-03-26T08:39:22.714Z,100033.03
2023-03-26T08:42:19.613Z,100030.47
2023-03-26T08:45:20.771Z,100018.81
2023-03-26T08:48:20.877Z,100019.97
2023-03-26T08:51:18.603Z,100018.44
2023-03-26T08:54:25.845Z,100017.06
2023-03-26T08:56:57.980Z,100015.38
2023-03-26T09:00:09.663Z,100021.66
2023-03-26T09:03:04.491Z,100009.16
2023-03-26T09:06:04.939Z,100021.72
2023-03-26T09:09:08.318Z,100020.69
2023-03-26T09:12:12.991Z,100022.41
2023-03-26T09:14:53.448Z,100018.69
2023-03-26T09:17:50.511Z,100020.22
2023-03-26T09:21:05.273Z,100027.63
2023-03-26T09:24:13.716Z,100031.00
2023-03-26T09:26:48.983Z,100025.25
2023-03-26T09:29:46.076Z,100028.78
2023-03-26T09:32:38.463Z,100019.16
2023-03-26T09:35:19.647Z,100023.38
2023-03-26T09:37:58.054Z,100016.81
2023-03-26T09:40:35.549Z,100022.53
2023-03-26T09:43:37.975Z,100021.69
2023-03-26T09:46:21.720Z,100031.81
2023-03-26T09:49:07.622Z,100024.56
2023-03-26T09:52:01.878Z,100026.78
2023-03-26T09:54:48.452Z,100022.72
2023-03-26T09:57:26.144Z,100022.03
2023-03-26T10:00:08.059Z,100018.84
2023-03-26T10:02:56.242Z,100026.44
2023-03-26T10:05:49.748Z,100025.44
2023-03-26T10:08:41.989Z,100028.44
2023-03-26T10:11:18.618Z,100028.63
2023-03-26T10:13:58.095Z,100037.53
2023-03-26T10:16:32.727Z,100033.47
2023-03-26T10:19:20.076Z,100029.78
2023-03-26T10:21:56.793Z,100017.63
2023-03-26T10:24:38.304Z,100027.28
2023-03-26T10:27:30.661Z,100022.22
2023-03-26T10:30:39.909Z,100020.69
2023-03-26T10:33:19.115Z,100014.97
2023-03-26T10:35:59.776Z,100013.78
2023-03-26T10:38:41.652Z,100012.94
2023-03-26T10:41:16.730Z,100013.59
2023-03-26T10:44:08.570Z,100021.06
2023-03-26T10:46:59.915Z,100018.34
2023-03-26T10:49:54.661Z,100011.41
2023-03-26T10:52:25.528Z,100012.22
2023-03-26T10:54:56.644Z,100017.09
2023-03-26T10:57:34.013Z,100010.47
2023-03-26T11:00:12.637Z,100013.13
2023-03-26T11:02:44.623Z,100009.38
2023-03-26T11:05:34.377Z,100001.16
2023-03-26T11:08:10.557Z,99989.44
2023-03-26T11:10:47.598Z,99994.63
2023-03-26T11:13:21.398Z,99989.38
2023-03-26T11:15:56.970Z,99991.28
2023-03-26T11:18:32.318Z,99981.91
2023-03-26T11:21:19.659Z,99988.66
2023-03-26T11:24:05.442Z,99982.34
2023-03-26T11:26:44.001Z,99984.44
2023-03-26T11:29:31.417Z,99984.66
2023-03-26T11:32:05.255Z,99984.03
2023-03-26T11:34:37.691Z,99981.28
2023-03-26T11:37:12.705Z,99981.94
2023-03-26T11:39:48.444Z,99979.59
2023-03-26T11:42:17.413Z,99979.38
2023-03-26T11:44:48.233Z,99975.34
2023-03-26T11:47:21.259Z,99982.19
2023-03-26T11:49:51.106Z,99976.66
2023-03-26T11:52:17.784Z,99970.88
2023-03-26T11:54:45.992Z,99976.41
2023-03-26T11:57:17.230Z,99971.47
2023-03-26T11:59:57.319Z,99971.06
2023-03-26T12:02:27.065Z,99969.97
2023-03-26T12:05:10.920Z,99965.00
2023-03-26T12:07:45.789Z,99964.28
2023-03-26T12:10:24.977Z,99949.84
2023-03-26T12:12:54.909Z,99944.88
2023-03-26T12:15:22.124Z,99943.56
2023-03-26T12:17:50.396Z,99940.09
2023-03-26T12:20:33.465Z,99942.91
2023-03-26T12:23:01.264Z,99944.78
2023-03-26T12:25:31.117Z,99941.16
2023-03-26T12:28:00.137Z,99933.41
2023-03-26T12:30:28.204Z,99940.16
2023-03-26T12:32:57.891Z,99941.06
2023-03-26T12:35:26.784Z,99937.25
2023-03-26T12:37:54.812Z,99924.19
2023-03-26T12:40:31.061Z,99919.91
2023-03-26T12:44:46.260Z,99920.66
2023-03-26T12:47:54.921Z,99912.53
2023-03-26T12:48:37.841Z,99918.22
2023-03-26T12:51:12.980Z,99922.03
2023-03-26T12:53:59.628Z,99922.00
2023-03-26T12:56:31.815Z,99927.38
2023-03-26T12:59:16.280Z,99934.25
2023-03-26T13:01:53.897Z,99930.25
2023-03-26T13:04:37.646Z,99927.72
2023-03-26T13:07:07.800Z,99930.50
2023-03-26T13:09:47.167Z,99924.22
2023-03-26T13:12:29.269Z,99917.91
2023-03-26T13:15:05.453Z,99914.25
2023-03-26T13:17:39.413Z,99918.13
2023-03-26T13:20:11.688Z,99920.34
2023-03-26T13:22:47.604Z,99916.16
2023-03-26T13:25:25.045Z,99915.03
2023-03-26T13:28:02.942Z,99908.94
2023-03-26T13:30:36.839Z,99907.28
2023-03-26T13:33:23.250Z,99907.06
2023-03-26T13:36:14.340Z,99910.00
2023-03-26T13:38:59.076Z,99902.63
2023-03-26T13:41:38.317Z,99907.63
2023-03-26T13:44:20.594Z,99904.44
2023-03-26T13:46:52.313Z,99900.88
2023-03-26T13:49:24.424Z,99903.78
2023-03-26T13:51:56.029Z,99912.38
2023-03-26T13:54:28.546Z,99900.50
2023-03-26T13:57:01.891Z,99895.34
2023-03-26T13:59:31.888Z,99899.47
2023-03-26T14:02:05.152Z,99901.97
2023-03-26T14:04:37.057Z,99897.88
2023-03-26T14:07:12.063Z,99891.81
2023-03-26T14:09:45.751Z,99887.22
2023-03-26T14:12:24.472Z,99898.53
2023-03-26T14:14:55.156Z,99887.84
2023-03-26T14:17:26.941Z,99898.09
2023-03-26T14:20:23.460Z,99899.91
2023-03-26T14:23:04.454Z,99891.66
2023-03-26T14:25:45.819Z,99896.22
2023-03-26T14:28:31.638Z,99902.44
2023-03-26T14:31:14.993Z,99897.84
2023-03-26T14:33:59.120Z,99893.25
2023-03-26T14:36:43.920Z,99899.97
2023-03-26T14:39:39.773Z,99890.19
2023-03-26T14:42:17.943Z,99893.34
2023-03-26T14:45:20.784Z,99883.13
2023-03-26T14:48:07.889Z,99891.28
2023-03-26T14:51:01.292Z,99885.84
2023-03-26T14:53:33.033Z,99876.69
2023-03-26T14:56:38.797Z,99882.13
2023-03-26T14:59:50.226Z,99874.72
2023-03-26T15:03:02.001Z,99877.00
2023-03-26T15:05:51.245Z,99872.44
2023-03-26T15:08:56.470Z,99869.31
2023-03-26T15:11:29.719Z,99867.00
2023-03-26T15:14:06.046Z,99874.47
2023-03-26T15:17:13.460Z,99871.91
2023-03-26T15:20:15.694Z,99869.34
2023-03-26T15:23:23.469Z,99874.72
2023-03-26T15:26:26.062Z,99868.56
2023-03-26T15:29:19.723Z,99874.91
2023-03-26T15:32:25.903Z,99873.94
2023-03-26T15:35:19.685Z,99869.38
2023-03-26T15:38:37.403Z,99878.19
2023-03-26T15:41:16.063Z,99877.66
2023-03-26T15:44:24.922Z,99878.34
2023-03-26T15:46:59.270Z,99874.03
2023-03-26T15:49:36.766Z,99884.00
2023-03-26T15:52:15.958Z,99874.09
2023-03-26T15:54:51.632Z,99884.03
2023-03-26T15:57:28.916Z,99881.03
2023-03-26T16:00:29.852Z,99888.28
2023-03-26T16:03:19.490Z,99887.44
2023-03-26T16:06:07.863Z,99886.25
2023-03-26T16:08:43.290Z,99882.72
2023-03-26T16:11:10.215Z,99888.56
2023-03-26T16:13:38.469Z,99895.31
2023-03-26T16:16:23.650Z,99896.91
2023-03-26T16:19:18.078Z,99894.28
2023-03-26T16:21:55.306Z,99892.28
2023-03-26T16:24:30.527Z,99888.25
2023-03-26T16:27:03.546Z,99889.94
2023-03-26T16:29:31.015Z,99892.00
2023-03-26T16:32:15.869Z,99888.63
2023-03-26T16:34:50.322Z,99889.38
2023-03-26T16:37:41.453Z,99895.50
2023-03-26T16:40:33.162Z,99894.81
2023-03-26T16:43:27.375Z,99898.28
2023-03-26T16:46:03.914Z,99893.13
2023-03-26T16:48:38.475Z,99895.34
2023-03-26T16:51:13.147Z,99895.34
2023-03-26T16:53:47.968Z,99895.69
2023-03-26T16:56:28.927Z,99900.00
2023-03-26T16:58:59.112Z,99897.81
2023-03-26T17:01:39.770Z,99902.25
2023-03-26T17:04:12.933Z,99901.31
2023-03-26T17:06:55.955Z,99897.59
2023-03-26T17:09:31.256Z,99904.78
2023-03-26T17:12:06.602Z,99903.44
2023-03-26T17:14:50.836Z,99908.53
2023-03-26T17:17:38.163Z,99910.28
2023-03-26T17:20:16.359Z,99909.28
2023-03-26T17:22:47.630Z,99922.53
2023-03-26T17:25:28.465Z,99924.94
2023-03-26T17:28:15.493Z,99922.06
2023-03-26T17:31:02.189Z,99930.91
2023-03-26T17:33:32.418Z,99932.44
2023-03-26T17:36:27.784Z,99935.81
2023-03-26T17:39:03.251Z,99940.94
2023-03-26T17:41:49.846Z,99935.19
2023-03-26T17:44:45.968Z,99942.97
2023-03-26T17:47:31.487Z,99947.06
2023-03-26T17:50:07.563Z,99952.13
2023-03-26T17:52:45.314Z,99949.44
2023-03-26T17:55:17.275Z,99947.38
2023-03-26T17:57:47.568Z,99954.16
2023-03-26T18:00:20.548Z,99954.84
2023-03-26T18:02:53.047Z,99952.66
2023-03-26T18:05:21.819Z,99957.88
2023-03-26T18:08:23.948Z,99961.94
2023-03-26T18:11:20.136Z,99960.94
2023-03-26T18:14:10.185Z,99961.59
2023-03-26T18:16:41.696Z,99961.25
2023-03-26T18:19:13.368Z,99959.25
2023-03-26T18:21:40.283Z,99976.97
2023-03-26T18:24:13.399Z,99972.22
2023-03-26T18:26:42.373Z,99982.66
2023-03-26T18:29:17.220Z,99976.94
2023-03-26T18:31:48.139Z,99980.16
2023-03-26T18:34:16.549Z,99982.66
2023-03-26T18:36:43.128Z,99978.75
2023-03-26T18:39:12.466Z,99991.22
2023-03-26T18:41:41.153Z,99983.97
2023-03-26T18:44:14.144Z,99985.59
2023-03-26T18:46:41.833Z,99988.13
2023-03-26T18:49:13.419Z,99986.41
2023-03-26T18:51:54.142Z,99988.72
2023-03-26T18:54:24.783Z,99991.25
2023-03-26T18:56:51.772Z,99995.44
2023-03-26T18:59:25.664Z,99992.22
2023-03-26T19:01:52.497Z,99991.00
2023-03-26T19:04:21.421Z,99988.78
2023-03-26T19:06:48.391Z,99997.34
2023-03-26T19:09:30.447Z,99996.97
2023-03-26T19:12:04.636Z,99995.78
2023-03-26T19:14:31.351Z,99996.94
2023-03-26T19:17:00.341Z,100000.94
2023-03-26T19:19:32.536Z,99995.03
2023-03-26T19:21:59.848Z,99995.16
2023-03-26T19:24:27.014Z,100000.03
2023-03-26T19:26:53.896Z,100001.19
2023-03-26T19:29:25.549Z,99999.50
2023-03-26T19:31:52.589Z,100004.19
2023-03-26T19:34:26.338Z,100003.53
2023-03-26T19:36:56.749Z,100006.53
2023-03-26T19:39:36.589Z,100008.53
2023-03-26T19:42:05.433Z,100007.00
2023-03-26T19:44:32.313Z,100009.84
2023-03-26T19:47:02.202Z,100013.53
2023-03-26T19:49:30.373Z,100007.47
2023-03-26T19:52:11.089Z,100022.94
2023-03-26T19:55:00.190Z,100016.88
2023-03-26T19:57:32.246Z,100024.56
2023-03-26T19:59:59.399Z,100027.03
2023-03-26T20:02:26.726Z,100035.56
2023-03-26T20:04:53.397Z,100034.19
2023-03-26T20:07:22.442Z,100037.19
2023-03-26T20:10:03.062Z,100039.34
2023-03-26T20:12:29.750Z,100042.34
2023-03-26T20:14:56.726Z,100046.50
2023-03-26T20:17:23.320Z,100046.13
2023-03-26T20:19:49.985Z,100049.28
2023-03-26T20:22:18.470Z,100059.63
2023-03-26T20:24:46.785Z,100059.78
2023-03-26T20:27:14.236Z,100059.41
2023-03-26T20:29:41.156Z,100064.22
2023-03-26T20:32:17.916Z,100075.63
2023-03-26T20:34:44.471Z,100069.69
2023-03-26T20:37:11.083Z,100074.38
2023-03-26T20:39:37.630Z,100065.63
2023-03-26T20:42:05.688Z,100071.28
2023-03-26T20:44:32.287Z,100070.03
2023-03-26T20:46:58.907Z,100071.19
2023-03-26T20:49:25.659Z,100076.69
2023-03-26T20:51:52.366Z,100075.03
2023-03-26T20:54:20.763Z,100085.06
2023-03-26T20:56:47.434Z,100081.97
2023-03-26T20:59:18.549Z,100076.59
2023-03-26T21:01:45.597Z,100081.13
2023-03-26T21:04:12.136Z,100085.13
2023-03-26T21:06:38.761Z,100093.34
2023-03-26T21:09:06.204Z,100090.25
2023-03-26T21:11:45.101Z,100087.03
2023-03-26T21:14:19.440Z,100096.22
2023-03-26T21:16:46.971Z,100094.69
2023-03-26T21:19:14.229Z,100098.50
2023-03-26T21:22:06.306Z,100095.81
2023-03-26T21:24:45.941Z,100099.66
2023-03-26T21:27:20.563Z,100110.53
2023-03-26T21:29:49.092Z,100112.38
2023-03-26T21:32:16.176Z,100108.00
2023-03-26T21:34:55.702Z,100110.97
2023-03-26T21:37:25.116Z,100112.00
2023-03-26T21:39:52.209Z,100112.25
2023-03-26T21:42:19.397Z,100114.25
2023-03-26T21:44:48.085Z,100112.69
2023-03-26T21:47:15.260Z,100114.53
2023-03-26T21:49:42.299Z,100120.91
2023-03-26T21:52:12.484Z,100119.34
2023-03-26T21:54:41.267Z,100119.66
2023-03-26T21:57:23.108Z,100128.88
2023-03-26T22:00:02.959Z,100126.44
2023-03-26T22:02:40.034Z,100129.13
2023-03-26T22:05:13.390Z,100128.44
2023-03-26T22:07:44.802Z,100136.78
2023-03-26T22:10:11.389Z,100136.09
2023-03-26T22:12:37.966Z,100136.50
2023-03-26T22:15:07.166Z,100141.31
2023-03-26T22:17:33.776Z,100150.38
2023-03-26T22:20:00.385Z,100147.97
2023-03-26T22:22:27.007Z,100150.94
2023-03-26T22:24:53.632Z,100152.94
2023-03-26T22:27:20.299Z,100156.59
2023-03-26T22:29:46.964Z,100150.53
2023-03-26T22:32:15.107Z,100152.38
2023-03-26T22:34:41.816Z,100153.47
2023-03-26T22:37:08.437Z,100150.09
2023-03-26T22:39:35.020Z,100155.47
2023-03-26T22:42:02.765Z,100157.44
2023-03-26T22:44:29.477Z,100168.47
2023-03-26T22:46:56.064Z,100161.41
2023-03-26T22:49:24.114Z,100161.69
2023-03-26T22:51:50.698Z,100173.53
2023-03-26T22:54:17.317Z,100176.38
2023-03-26T22:56:44.024Z,100180.91
2023-03-26T22:59:10.609Z,100183.88
2023-03-26T23:01:37.707Z,100188.66
2023-03-26T23:04:04.495Z,100183.59
2023-03-26T23:06:32.449Z,100188.22
2023-03-26T23:08:59.030Z,100190.34
2023-03-26T23:11:25.664Z,100202.09
2023-03-26T23:13:52.588Z,100197.84
2023-03-26T23:16:19.351Z,100203.31
2023-03-26T23:18:46.008Z,100199.81
2023-03-26T23:21:14.842Z,100208.09
2023-03-26T23:30:32.308Z,100214.00
2023-03-26T23:36:27.219Z,100225.66
2023-03-26T23:38:53.870Z,100230.47
2023-03-26T23:41:22.903Z,100237.81
2023-03-26T23:43:53.329Z,100245.25
2023-03-26T23:46:25.410Z,100246.50
2023-03-26T23:48:52.862Z,100255.56
2023-03-26T23:51:20.568Z,100250.59
2023-03-26T23:53:48.127Z,100259.75
2023-03-26T23:56:14.758Z,100260.03
2023-03-26T23:58:41.530Z,100271.16
